createdAt,value
2022-12-31T00:01:35.910Z,2.67
2022-12-31T00:04:15.069Z,2.75
2022-12-31T00:06:51.828Z,2.78
2022-12-31T00:09:21.974Z,7.80
2022-12-31T00:11:58.467Z,4.85
2022-12-31T00:14:31.539Z,3.47
2022-12-31T00:17:07.890Z,3.90
2022-12-31T00:19:42.503Z,2.75
2022-12-31T00:22:18.323Z,4.00
2022-12-31T00:24:53.956Z,3.78
2022-12-31T00:27:49.707Z,3.50
2022-12-31T00:30:24.771Z,3.10
2022-12-31T00:32:59.589Z,3.33
2022-12-31T00:35:29.653Z,2.92
2022-12-31T00:38:02.953Z,3.65
2022-12-31T00:40:33.801Z,2.83
2022-12-31T00:43:04.258Z,3.65
2022-12-31T00:45:37.124Z,3.10
2022-12-31T00:48:21.367Z,3.47
2022-12-31T00:51:04.679Z,2.75
2022-12-31T00:53:43.079Z,2.72
2022-12-31T00:56:25.519Z,3.05
2022-12-31T00:59:02.679Z,3.08
2022-12-31T01:01:36.432Z,3.05
2022-12-31T01:04:23.625Z,2.70
2022-12-31T01:06:53.723Z,2.72
2022-12-31T01:09:27.269Z,3.42
2022-12-31T01:11:57.403Z,3.83
2022-12-31T01:14:35.821Z,3.30
2022-12-31T01:17:21.994Z,3.20
2022-12-31T01:19:58.589Z,3.92
2022-12-31T01:22:32.087Z,3.53
2022-12-31T01:25:03.260Z,2.97
2022-12-31T01:27:34.218Z,3.50
2022-12-31T01:30:04.892Z,3.55
2022-12-31T01:32:35.157Z,3.15
2022-12-31T01:35:10.444Z,3.20
2022-12-31T01:37:40.515Z,3.83
2022-12-31T01:40:13.058Z,3.55
2022-12-31T01:42:48.266Z,3.00
2022-12-31T01:45:21.465Z,3.15
2022-12-31T01:47:59.997Z,3.88
2022-12-31T01:50:43.873Z,3.03
2022-12-31T01:53:14.301Z,3.30
2022-12-31T01:56:00.590Z,3.40
2022-12-31T01:58:45.848Z,3.25
2022-12-31T02:01:37.413Z,3.63
2022-12-31T02:04:16.328Z,3.30
2022-12-31T02:06:52.299Z,3.83
2022-12-31T02:09:28.232Z,3.67
2022-12-31T02:12:14.214Z,3.10
2022-12-31T02:14:53.365Z,3.13
2022-12-31T02:18:04.956Z,3.65
2022-12-31T02:20:46.176Z,3.97
2022-12-31T02:23:50.561Z,3.47
2022-12-31T02:26:57.212Z,3.50
2022-12-31T02:29:53.405Z,3.53
2022-12-31T02:32:34.914Z,4.15
2022-12-31T02:35:20.815Z,3.65
2022-12-31T02:37:55.382Z,4.03
2022-12-31T02:40:31.595Z,3.72
2022-12-31T02:43:15.087Z,3.75
2022-12-31T02:46:09.464Z,3.58
2022-12-31T02:48:53.128Z,4.22
2022-12-31T02:54:25.121Z,4.53
2022-12-31T02:57:42.494Z,4.10
2022-12-31T03:00:38.196Z,4.38
2022-12-31T03:03:18.575Z,3.78
2022-12-31T03:05:51.269Z,4.05
2022-12-31T03:08:59.675Z,4.15
2022-12-31T03:11:56.258Z,4.38
2022-12-31T03:14:35.603Z,4.18
2022-12-31T03:17:11.405Z,3.53
2022-12-31T03:20:02.962Z,3.45
2022-12-31T03:22:46.720Z,3.58
2022-12-31T03:25:41.981Z,4.03
2022-12-31T03:28:25.207Z,3.95
2022-12-31T03:31:04.565Z,3.50
2022-12-31T03:33:39.494Z,3.72
2022-12-31T03:36:19.058Z,4.28
2022-12-31T03:38:52.665Z,3.95
2022-12-31T03:41:26.507Z,4.05
2022-12-31T03:44:04.735Z,4.18
2022-12-31T03:46:38.140Z,3.85
2022-12-31T03:49:11.472Z,3.90
2022-12-31T03:51:45.347Z,3.95
2022-12-31T03:54:20.914Z,3.60
2022-12-31T03:56:53.020Z,3.78
2022-12-31T03:59:36.051Z,3.78
2022-12-31T04:02:12.974Z,3.83
2022-12-31T04:04:46.418Z,3.95
2022-12-31T04:07:28.585Z,4.03
2022-12-31T04:10:07.103Z,3.72
2022-12-31T04:12:37.915Z,3.30
2022-12-31T04:15:19.633Z,3.67
2022-12-31T04:17:55.318Z,3.40
2022-12-31T04:20:25.763Z,3.85
2022-12-31T04:22:56.215Z,3.63
2022-12-31T04:25:31.798Z,3.53
2022-12-31T04:28:09.781Z,3.22
2022-12-31T04:30:44.792Z,3.30
2022-12-31T04:33:23.474Z,3.10
2022-12-31T04:36:08.873Z,3.35
2022-12-31T04:38:39.489Z,3.38
2022-12-31T04:44:07.165Z,4.05
2022-12-31T04:46:44.448Z,4.22
2022-12-31T04:49:37.985Z,3.42
2022-12-31T04:52:11.411Z,4.03
2022-12-31T04:54:47.185Z,4.18
2022-12-31T04:57:23.005Z,4.43
2022-12-31T04:59:53.462Z,4.07
2022-12-31T05:02:40.933Z,4.78
2022-12-31T05:05:14.457Z,4.70
2022-12-31T05:07:56.099Z,4.72
2022-12-31T05:10:29.345Z,4.63
2022-12-31T05:13:05.023Z,6.15
2022-12-31T05:15:46.198Z,4.90
2022-12-31T05:18:17.327Z,5.35
2022-12-31T05:23:31.852Z,5.68
2022-12-31T05:26:02.929Z,4.88
2022-12-31T05:28:39.092Z,6.10
2022-12-31T05:31:15.061Z,6.40
2022-12-31T05:33:59.122Z,5.82
2022-12-31T05:36:37.954Z,5.07
2022-12-31T05:39:10.605Z,5.15
2022-12-31T05:41:59.243Z,5.45
2022-12-31T05:44:32.896Z,5.38
2022-12-31T05:47:05.767Z,4.88
2022-12-31T05:49:36.842Z,5.88
2022-12-31T05:52:07.946Z,6.05
2022-12-31T05:54:38.755Z,5.93
2022-12-31T05:57:11.438Z,6.30
2022-12-31T05:59:48.074Z,6.70
2022-12-31T06:02:26.626Z,6.63
2022-12-31T06:05:09.567Z,6.50
2022-12-31T06:07:39.672Z,10.18
2022-12-31T06:10:20.877Z,12.10
2022-12-31T06:12:55.898Z,10.27
2022-12-31T06:15:26.393Z,10.45
2022-12-31T06:17:59.612Z,12.20
2022-12-31T06:20:30.074Z,7.75
2022-12-31T06:23:00.113Z,4.95
2022-12-31T06:25:36.521Z,6.82
2022-12-31T06:28:19.830Z,6.63
2022-12-31T06:30:51.058Z,5.25
2022-12-31T06:36:23.550Z,6.53
2022-12-31T06:38:56.622Z,7.65
2022-12-31T06:41:35.040Z,7.57
2022-12-31T06:44:07.877Z,9.05
2022-12-31T06:46:54.642Z,6.13
2022-12-31T06:49:27.699Z,8.32
2022-12-31T06:52:22.098Z,7.07
2022-12-31T06:55:00.987Z,7.57
2022-12-31T06:57:32.087Z,6.07
2022-12-31T07:00:05.340Z,7.10
2022-12-31T07:03:21.125Z,6.78
2022-12-31T07:05:53.719Z,6.05
2022-12-31T07:08:52.650Z,6.75
2022-12-31T07:11:53.146Z,5.20
2022-12-31T07:15:02.037Z,7.15
2022-12-31T07:17:50.734Z,7.90
2022-12-31T07:20:30.550Z,8.02
2022-12-31T07:23:05.478Z,5.63
2022-12-31T07:25:44.595Z,7.65
2022-12-31T07:29:08.415Z,7.70
2022-12-31T07:32:31.351Z,7.07
2022-12-31T07:35:40.810Z,6.18
2022-12-31T07:38:30.820Z,6.05
2022-12-31T07:41:18.340Z,5.22
2022-12-31T07:44:07.707Z,6.43
2022-12-31T07:46:55.859Z,6.00
2022-12-31T07:49:46.198Z,6.15
2022-12-31T07:52:28.002Z,6.60
2022-12-31T07:55:18.677Z,5.82
2022-12-31T07:58:07.341Z,6.45
2022-12-31T08:00:38.032Z,6.28
2022-12-31T08:06:35.200Z,5.97
2022-12-31T08:09:49.441Z,5.93
2022-12-31T08:12:36.207Z,6.72
2022-12-31T08:15:25.444Z,6.88
2022-12-31T08:17:59.344Z,6.53
2022-12-31T08:20:37.810Z,7.43
2022-12-31T08:23:38.470Z,6.72
2022-12-31T08:26:16.564Z,6.65
2022-12-31T08:28:59.897Z,6.93
2022-12-31T08:31:49.700Z,7.20
2022-12-31T08:34:54.297Z,5.95
2022-12-31T08:37:47.716Z,5.82
2022-12-31T08:40:39.802Z,6.32
2022-12-31T08:43:51.391Z,3.75
2022-12-31T08:46:50.468Z,4.18
2022-12-31T08:49:36.293Z,4.70
2022-12-31T08:52:20.001Z,4.20
2022-12-31T08:54:55.620Z,4.10
2022-12-31T08:57:44.708Z,3.22
2022-12-31T09:00:27.927Z,3.42
2022-12-31T09:03:54.704Z,3.45
2022-12-31T09:06:34.755Z,3.22
2022-12-31T09:09:43.497Z,2.90
2022-12-31T09:13:12.672Z,3.20
2022-12-31T09:16:20.164Z,2.92
2022-12-31T09:19:09.255Z,3.03
2022-12-31T09:21:48.593Z,3.15
2022-12-31T09:24:21.062Z,2.70
2022-12-31T09:27:23.874Z,2.70
2022-12-31T09:30:06.934Z,2.70
2022-12-31T09:33:01.521Z,2.63
2022-12-31T09:35:58.402Z,2.75
2022-12-31T09:38:31.443Z,2.80
2022-12-31T09:41:38.449Z,2.75
2022-12-31T09:44:36.928Z,2.53
2022-12-31T09:47:41.683Z,3.35
2022-12-31T09:50:27.535Z,3.78
2022-12-31T09:53:20.053Z,3.40
2022-12-31T09:57:01.362Z,3.33
2022-12-31T09:59:32.250Z,3.40
2022-12-31T10:02:38.053Z,2.80
2022-12-31T10:05:35.851Z,2.70
2022-12-31T10:11:51.503Z,2.60
2022-12-31T10:15:03.691Z,2.38
2022-12-31T10:18:05.825Z,2.97
2022-12-31T10:20:53.649Z,2.40
2022-12-31T10:23:45.023Z,2.28
2022-12-31T10:26:56.227Z,2.70
2022-12-31T10:30:07.926Z,2.78
2022-12-31T10:32:58.524Z,2.50
2022-12-31T10:36:05.000Z,2.60
2022-12-31T10:38:59.183Z,2.10
2022-12-31T10:41:50.383Z,2.60
2022-12-31T10:44:29.219Z,2.20
2022-12-31T10:47:37.335Z,2.30
2022-12-31T10:50:43.682Z,2.28
2022-12-31T10:53:41.064Z,1.98
2022-12-31T10:56:49.145Z,2.13
2022-12-31T10:59:35.787Z,1.88
2022-12-31T11:02:46.680Z,2.17
2022-12-31T11:06:01.293Z,2.20
2022-12-31T11:08:58.857Z,2.03
2022-12-31T11:12:10.415Z,2.20
2022-12-31T11:15:26.146Z,1.92
2022-12-31T11:21:14.627Z,2.00
2022-12-31T11:27:11.301Z,2.00
2022-12-31T11:29:53.917Z,1.70
2022-12-31T11:33:06.376Z,2.00
2022-12-31T11:35:48.177Z,1.45
2022-12-31T11:38:54.474Z,2.20
2022-12-31T11:42:09.220Z,1.95
2022-12-31T11:45:00.307Z,1.73
2022-12-31T11:48:32.391Z,1.67
2022-12-31T11:51:27.923Z,1.55
2022-12-31T11:55:01.020Z,1.67
2022-12-31T11:57:40.185Z,1.80
2022-12-31T12:00:29.615Z,1.50
2022-12-31T12:03:08.592Z,1.70
2022-12-31T12:05:48.079Z,1.70
2022-12-31T12:08:18.985Z,1.58
2022-12-31T12:11:07.238Z,2.03
2022-12-31T12:13:39.942Z,1.70
2022-12-31T12:16:10.562Z,1.40
2022-12-31T12:18:51.063Z,1.20
2022-12-31T12:21:31.968Z,1.60
2022-12-31T12:24:37.643Z,1.38
2022-12-31T12:27:34.594Z,1.67
2022-12-31T12:30:33.599Z,1.55
2022-12-31T12:33:06.944Z,1.40
2022-12-31T12:35:37.913Z,1.48
2022-12-31T12:38:22.205Z,1.45
2022-12-31T12:41:04.759Z,1.50
2022-12-31T12:43:42.115Z,1.75
2022-12-31T12:46:31.394Z,1.60
2022-12-31T12:49:07.647Z,1.50
2022-12-31T12:52:04.585Z,1.58
2022-12-31T12:54:53.789Z,1.58
2022-12-31T12:57:58.047Z,1.58
2022-12-31T13:00:53.736Z,1.48
2022-12-31T13:07:35.167Z,1.67
2022-12-31T13:10:08.594Z,1.75
2022-12-31T13:13:22.713Z,1.60
2022-12-31T13:16:07.031Z,1.80
2022-12-31T13:19:06.506Z,1.50
2022-12-31T13:22:20.649Z,1.63
2022-12-31T13:24:56.141Z,1.67
2022-12-31T13:27:47.717Z,1.60
2022-12-31T13:30:27.892Z,1.63
2022-12-31T13:33:05.791Z,1.60
2022-12-31T13:36:19.036Z,1.60
2022-12-31T13:38:53.193Z,1.70
2022-12-31T13:41:43.155Z,1.65
2022-12-31T13:44:37.728Z,1.60
2022-12-31T13:47:28.161Z,1.55
2022-12-31T13:50:14.374Z,1.60
2022-12-31T13:53:43.353Z,1.60
2022-12-31T13:56:27.944Z,2.05
2022-12-31T13:59:27.716Z,1.83
2022-12-31T14:02:33.943Z,1.70
2022-12-31T14:05:18.240Z,1.80
2022-12-31T14:08:07.878Z,1.77
2022-12-31T14:10:58.993Z,1.67
2022-12-31T14:13:59.450Z,1.83
2022-12-31T14:16:57.110Z,2.00
2022-12-31T14:19:51.685Z,1.80
2022-12-31T14:22:30.867Z,2.05
2022-12-31T14:25:42.639Z,1.80
2022-12-31T14:31:45.214Z,1.67
2022-12-31T14:34:39.682Z,1.70
2022-12-31T14:37:41.188Z,1.40
2022-12-31T14:40:26.462Z,1.65
2022-12-31T14:43:34.076Z,1.60
2022-12-31T14:46:35.808Z,1.80
2022-12-31T14:49:37.384Z,1.90
2022-12-31T14:52:57.245Z,1.90
2022-12-31T14:55:41.982Z,1.63
2022-12-31T14:58:35.232Z,1.77
2022-12-31T15:01:10.133Z,1.80
2022-12-31T15:03:46.093Z,1.85
2022-12-31T15:06:28.072Z,1.70
2022-12-31T15:09:18.139Z,2.10
2022-12-31T15:12:17.742Z,1.80
2022-12-31T15:14:57.216Z,2.30
2022-12-31T15:18:19.228Z,2.60
2022-12-31T15:21:28.163Z,2.30
2022-12-31T15:24:04.128Z,1.88
2022-12-31T15:26:38.440Z,2.25
2022-12-31T15:29:25.110Z,2.05
2022-12-31T15:32:05.603Z,2.20
2022-12-31T15:34:38.250Z,2.53
2022-12-31T15:37:48.472Z,1.65
2022-12-31T15:40:33.970Z,2.00
2022-12-31T15:43:25.376Z,2.20
2022-12-31T15:46:08.024Z,1.75
2022-12-31T15:48:52.236Z,2.17
2022-12-31T15:51:42.485Z,2.42
2022-12-31T15:54:43.813Z,2.10
2022-12-31T15:57:34.747Z,1.70
2022-12-31T16:00:22.519Z,1.80
2022-12-31T16:02:57.951Z,1.70
2022-12-31T16:05:29.556Z,1.95
2022-12-31T16:08:05.291Z,2.00
2022-12-31T16:10:36.331Z,1.52
2022-12-31T16:13:10.050Z,1.60
2022-12-31T16:15:43.740Z,1.35
2022-12-31T16:18:22.597Z,1.88
2022-12-31T16:20:56.454Z,1.48
2022-12-31T16:23:42.060Z,1.98
2022-12-31T16:26:18.614Z,1.55
2022-12-31T16:29:01.213Z,1.73
2022-12-31T16:31:39.193Z,1.77
2022-12-31T16:34:30.074Z,1.63
2022-12-31T16:37:06.362Z,1.50
2022-12-31T16:39:38.702Z,1.40
2022-12-31T16:42:24.328Z,1.60
2022-12-31T16:45:05.839Z,1.75
2022-12-31T16:47:47.787Z,1.92
2022-12-31T16:50:26.601Z,1.38
2022-12-31T16:53:10.643Z,1.50
2022-12-31T16:55:46.645Z,1.63
2022-12-31T16:58:36.537Z,1.55
2022-12-31T17:01:28.141Z,1.60
2022-12-31T17:04:05.864Z,1.52
2022-12-31T17:06:44.825Z,1.52
2022-12-31T17:09:40.246Z,1.60
2022-12-31T17:12:25.466Z,1.52
2022-12-31T17:15:20.689Z,1.65
2022-12-31T17:18:12.610Z,1.67
2022-12-31T17:20:43.069Z,1.60
2022-12-31T17:23:39.849Z,1.70
2022-12-31T17:26:39.839Z,1.77
2022-12-31T17:29:26.420Z,1.73
2022-12-31T17:32:10.437Z,1.45
2022-12-31T17:35:03.323Z,1.67
2022-12-31T17:40:50.867Z,1.45
2022-12-31T17:43:28.718Z,1.58
2022-12-31T17:46:14.322Z,1.73
2022-12-31T17:48:47.485Z,1.48
2022-12-31T17:51:17.565Z,1.77
2022-12-31T17:54:03.392Z,1.90
2022-12-31T17:56:38.669Z,1.70
2022-12-31T17:59:09.757Z,1.50
2022-12-31T18:01:40.796Z,1.80
2022-12-31T18:04:32.019Z,1.55
2022-12-31T18:07:06.950Z,1.73
2022-12-31T18:09:40.076Z,1.55
2022-12-31T18:12:26.160Z,1.67
2022-12-31T18:15:07.681Z,1.77
2022-12-31T18:17:49.025Z,1.38
2022-12-31T18:20:27.023Z,2.15
2022-12-31T18:22:59.924Z,1.67
2022-12-31T18:28:17.177Z,1.90
2022-12-31T18:30:48.889Z,1.48
2022-12-31T18:33:23.449Z,1.50
2022-12-31T18:36:10.664Z,1.70
2022-12-31T18:38:45.227Z,1.38
2022-12-31T18:41:28.045Z,1.48
2022-12-31T18:44:03.653Z,1.80
2022-12-31T18:46:38.611Z,1.80
2022-12-31T18:49:09.218Z,1.60
2022-12-31T18:51:39.674Z,1.92
2022-12-31T18:54:22.023Z,1.67
2022-12-31T18:57:00.452Z,1.45
2022-12-31T18:59:30.536Z,1.40
2022-12-31T19:02:03.859Z,1.65
2022-12-31T19:04:36.627Z,1.80
2022-12-31T19:07:07.062Z,1.75
2022-12-31T19:09:58.143Z,1.70
2022-12-31T19:12:31.377Z,1.65
2022-12-31T19:16:00.465Z,1.75
2022-12-31T19:18:30.531Z,1.80
2022-12-31T19:21:15.444Z,1.67
2022-12-31T19:23:51.418Z,1.52
2022-12-31T19:26:25.002Z,1.60
2022-12-31T19:28:58.357Z,1.70
2022-12-31T19:31:30.431Z,2.05
2022-12-31T19:34:05.876Z,1.60
2022-12-31T19:36:43.554Z,1.80
2022-12-31T19:39:19.848Z,1.75
2022-12-31T19:41:58.896Z,1.77
2022-12-31T19:44:33.813Z,1.77
2022-12-31T19:47:13.150Z,1.52
2022-12-31T19:49:45.956Z,1.67
2022-12-31T19:52:18.312Z,1.60
2022-12-31T19:54:48.394Z,1.65
2022-12-31T19:57:20.378Z,1.40
2022-12-31T19:59:53.467Z,1.52
2022-12-31T20:02:30.398Z,1.80
2022-12-31T20:05:05.833Z,1.95
2022-12-31T20:07:45.260Z,2.10
2022-12-31T20:10:31.363Z,1.85
2022-12-31T20:13:01.848Z,1.67
2022-12-31T20:15:35.716Z,1.70
2022-12-31T20:18:08.907Z,1.77
2022-12-31T20:20:41.877Z,1.85
2022-12-31T20:23:20.210Z,1.70
2022-12-31T20:26:02.163Z,1.70
2022-12-31T20:28:40.640Z,2.20
2022-12-31T20:31:16.903Z,2.10
2022-12-31T20:33:57.703Z,1.75
2022-12-31T20:36:36.683Z,1.90
2022-12-31T20:39:25.237Z,1.58
2022-12-31T20:42:04.231Z,1.40
2022-12-31T20:44:43.412Z,1.73
2022-12-31T20:47:14.952Z,1.80
2022-12-31T20:50:10.936Z,1.80
2022-12-31T20:52:56.663Z,1.75
2022-12-31T20:55:33.506Z,1.88
2022-12-31T20:58:10.348Z,1.70
2022-12-31T21:00:41.474Z,1.50
2022-12-31T21:04:03.527Z,1.50
2022-12-31T21:06:29.511Z,1.70
2022-12-31T21:09:12.809Z,1.92
2022-12-31T21:12:04.252Z,1.65
2022-12-31T21:14:42.810Z,1.45
2022-12-31T21:17:24.933Z,1.48
2022-12-31T21:20:02.954Z,1.60
2022-12-31T21:22:34.946Z,1.45
2022-12-31T21:25:10.574Z,1.70
2022-12-31T21:27:54.287Z,1.50
2022-12-31T21:30:24.324Z,2.00
2022-12-31T21:32:55.822Z,1.88
2022-12-31T21:35:43.288Z,2.08
2022-12-31T21:38:21.011Z,1.75
2022-12-31T21:41:05.119Z,1.77
2022-12-31T21:43:42.013Z,1.80
2022-12-31T21:47:00.736Z,1.83
2022-12-31T21:49:35.832Z,1.98
2022-12-31T21:52:52.190Z,1.73
2022-12-31T21:55:43.560Z,1.77
2022-12-31T21:58:28.763Z,1.80
2022-12-31T22:01:20.602Z,2.00
2022-12-31T22:03:50.788Z,1.67
2022-12-31T22:06:26.235Z,1.90
2022-12-31T22:08:59.701Z,1.73
2022-12-31T22:11:36.417Z,1.67
2022-12-31T22:14:12.580Z,1.80
2022-12-31T22:16:49.002Z,2.15
2022-12-31T22:19:19.093Z,2.13
2022-12-31T22:22:01.322Z,2.70
2022-12-31T22:24:48.863Z,2.13
2022-12-31T22:27:28.201Z,1.88
2022-12-31T22:30:17.871Z,2.20
2022-12-31T22:33:02.515Z,1.67
2022-12-31T22:35:35.592Z,2.00
2022-12-31T22:38:13.620Z,2.20
2022-12-31T22:40:43.694Z,2.30
2022-12-31T22:43:14.819Z,1.73
2022-12-31T22:45:53.604Z,2.10
2022-12-31T22:48:24.121Z,1.88
2022-12-31T22:50:59.941Z,1.95
2022-12-31T22:53:44.445Z,2.13
2022-12-31T22:56:27.407Z,2.22
2022-12-31T22:58:57.938Z,2.13
2022-12-31T23:01:28.039Z,1.83
2022-12-31T23:04:13.376Z,2.15
2022-12-31T23:06:46.301Z,2.03
2022-12-31T23:09:38.382Z,2.20
2022-12-31T23:12:11.953Z,1.90
2022-12-31T23:15:03.497Z,2.13
2022-12-31T23:17:55.065Z,2.28
2022-12-31T23:20:45.168Z,2.40
2022-12-31T23:23:37.736Z,1.98
2022-12-31T23:26:16.931Z,2.53
2022-12-31T23:28:55.493Z,1.90
2022-12-31T23:31:30.029Z,1.90
2022-12-31T23:34:04.173Z,2.38
2022-12-31T23:36:37.649Z,2.58
2022-12-31T23:39:12.387Z,2.00
2022-12-31T23:41:48.408Z,2.20
2022-12-31T23:44:23.098Z,2.28
2022-12-31T23:46:55.154Z,2.50
2022-12-31T23:49:25.979Z,2.80
2022-12-31T23:51:56.440Z,3.17
2022-12-31T23:54:30.095Z,2.42
2022-12-31T23:57:02.878Z,2.13
2022-12-31T23:59:40.966Z,2.72
